Time;durP1;ratioP1;P1;durP2;ratioP2;P2;SDS_P1;SDS_P2;PMS_P1;PMS_P2;Temp;Humidity;BMP_temperature;BMP_pressure;BME280_temperature;BME280_humidity;BME280_pressure;Samples;Min_cycle;Max_cycle;Signal;HPM_P1;HPM_P2
2021/08/26 00:07:25;;;;;;;2.83;1.90;;;16.50;99.90;;;;;;5012364;28;20455;-77
2021/08/26 00:09:51;;;;;;;2.33;1.50;;;16.40;99.90;;;;;;5011442;28;20429;-77
2021/08/26 00:12:19;;;;;;;2.00;1.80;;;16.30;99.90;;;;;;5011584;28;20166;-77
2021/08/26 00:14:45;;;;;;;4.50;1.70;;;16.30;99.90;;;;;;5009896;28;20440;-78
2021/08/26 00:17:10;;;;;;;3.33;1.50;;;16.40;99.90;;;;;;5011686;28;20501;-77
2021/08/26 00:19:38;;;;;;;5.83;1.60;;;16.40;99.90;;;;;;5010329;28;20328;-77
2021/08/26 00:22:04;;;;;;;4.70;2.40;;;16.40;99.90;;;;;;5011778;28;20202;-78
2021/08/26 00:24:29;;;;;;;2.70;1.93;;;16.40;99.90;;;;;;5011412;28;20935;-77
2021/08/26 00:26:55;;;;;;;6.43;1.83;;;16.30;99.90;;;;;;5010472;28;20502;-76
2021/08/26 00:29:20;;;;;;;3.10;1.87;;;16.40;99.90;;;;;;5010223;28;20236;-77
2021/08/26 00:31:46;;;;;;;3.03;2.13;;;16.30;99.90;;;;;;5014887;28;20178;-78
2021/08/26 00:34:11;;;;;;;2.17;1.70;;;16.30;99.90;;;;;;5013883;28;20201;-78
2021/08/26 00:36:37;;;;;;;4.60;2.30;;;16.20;99.90;;;;;;5013950;28;20185;-77
2021/08/26 00:39:06;;;;;;;3.53;1.90;;;16.30;99.90;;;;;;5014231;28;20510;-78
2021/08/26 00:41:31;;;;;;;2.40;1.73;;;16.30;99.90;;;;;;5014662;28;20640;-76
2021/08/26 00:43:57;;;;;;;3.67;2.17;;;16.40;99.90;;;;;;5014750;28;20464;-77
2021/08/26 00:46:25;;;;;;;2.20;1.97;;;16.30;99.90;;;;;;5014774;28;20208;-77
2021/08/26 00:48:51;;;;;;;2.10;1.90;;;16.20;99.90;;;;;;5014932;28;20242;-77
2021/08/26 00:51:16;;;;;;;6.17;1.97;;;16.10;99.90;;;;;;5015105;28;20632;-77
2021/08/26 00:53:42;;;;;;;3.20;2.20;;;16.00;99.90;;;;;;5013460;28;20174;-77
2021/08/26 00:56:16;;;;;;;3.00;1.83;;;16.00;99.90;;;;;;5014829;28;20192;-76
2021/08/26 00:58:52;;;;;;;3.10;1.90;;;16.10;99.90;;;;;;5014869;28;20412;-77
2021/08/26 01:01:24;;;;;;;4.07;1.97;;;16.10;99.90;;;;;;4995361;28;20414;-77
2021/08/26 01:03:54;;;;;;;3.83;2.30;;;16.20;99.90;;;;;;4994765;28;20465;-77
2021/08/26 01:06:24;;;;;;;3.60;2.20;;;15.90;99.90;;;;;;4994940;28;20457;-77
2021/08/26 01:08:55;;;;;;;4.30;2.23;;;16.00;99.90;;;;;;4995172;28;20402;-77
2021/08/26 01:11:22;;;;;;;6.43;2.50;;;16.10;99.90;;;;;;5014472;28;20420;-77
2021/08/26 01:13:51;;;;;;;2.10;1.90;;;16.00;99.90;;;;;;5013133;28;20467;-77
2021/08/26 01:16:17;;;;;;;5.20;2.07;;;16.10;99.90;;;;;;5014579;28;20837;-77
2021/08/26 01:18:45;;;;;;;6.53;2.07;;;16.10;99.90;;;;;;5014232;28;20436;-76
2021/08/26 01:21:13;;;;;;;4.10;2.50;;;16.10;99.90;;;;;;5014136;28;20192;-76
2021/08/26 01:23:42;;;;;;;2.97;2.20;;;16.10;99.90;;;;;;5013774;28;20420;-77
2021/08/26 01:26:19;;;;;;;10.40;2.47;;;16.00;99.90;;;;;;5014264;28;20460;-77
2021/08/26 01:28:49;;;;;;;5.57;1.97;;;16.10;99.90;;;;;;5013935;28;20441;-77
2021/08/26 01:31:18;;;;;;;2.63;1.90;;;16.10;99.90;;;;;;5013944;28;20420;-77
2021/08/26 01:33:49;;;;;;;2.83;1.70;;;16.10;99.90;;;;;;5013719;28;20421;-78
2021/08/26 01:36:15;;;;;;;5.30;2.50;;;16.20;99.90;;;;;;5013962;28;20429;-78
2021/08/26 01:38:40;;;;;;;3.43;2.67;;;16.30;99.90;;;;;;5014117;28;20429;-78
2021/08/26 01:41:06;;;;;;;3.03;2.03;;;16.30;99.90;;;;;;5014423;28;20205;-77
2021/08/26 01:43:34;;;;;;;3.30;1.83;;;16.30;99.90;;;;;;5012755;28;20206;-78
2021/08/26 01:45:59;;;;;;;5.67;2.87;;;16.30;99.90;;;;;;5014071;28;20668;-78
2021/08/26 01:48:25;;;;;;;3.37;2.20;;;16.20;99.90;;;;;;5013996;28;20433;-77
2021/08/26 01:50:51;;;;;;;5.40;1.90;;;16.20;99.90;;;;;;5014221;28;20425;-77
2021/08/26 01:53:17;;;;;;;3.03;1.87;;;16.20;99.90;;;;;;5013858;28;20509;-77
2021/08/26 01:55:45;;;;;;;3.40;2.10;;;16.30;99.90;;;;;;5014023;28;20433;-77
2021/08/26 01:58:12;;;;;;;2.20;1.70;;;16.30;99.90;;;;;;5013989;28;20827;-77
2021/08/26 02:00:38;;;;;;;3.90;2.50;;;16.40;99.90;;;;;;5013733;28;20481;-77
2021/08/26 02:03:04;;;;;;;6.37;2.37;;;16.30;99.90;;;;;;5013975;28;20967;-77
2021/08/26 02:05:30;;;;;;;5.43;2.77;;;16.30;99.90;;;;;;5013650;28;20500;-78
2021/08/26 02:07:56;;;;;;;5.50;2.03;;;16.20;99.90;;;;;;5014233;28;20170;-77
2021/08/26 02:10:22;;;;;;;4.20;2.77;;;16.20;99.90;;;;;;5013329;28;20673;-76
2021/08/26 02:12:47;;;;;;;8.00;1.97;;;16.20;99.90;;;;;;5013284;28;20198;-77
2021/08/26 02:15:14;;;;;;;3.73;2.27;;;16.20;99.90;;;;;;5013230;28;20457;-77
2021/08/26 02:17:40;;;;;;;3.53;1.93;;;16.20;99.90;;;;;;5013548;28;20178;-77
2021/08/26 02:20:07;;;;;;;8.73;3.10;;;16.00;99.90;;;;;;5012902;28;20417;-77
2021/08/26 02:22:34;;;;;;;4.97;2.83;;;16.10;99.90;;;;;;5013273;28;20460;-77
2021/08/26 02:24:59;;;;;;;5.73;2.13;;;16.10;99.90;;;;;;5012755;28;20450;-77
2021/08/26 02:27:25;;;;;;;6.93;2.30;;;16.10;99.90;;;;;;5013172;28;20445;-77
2021/08/26 02:29:50;;;;;;;3.60;2.33;;;16.10;99.90;;;;;;5014065;28;20188;-78
2021/08/26 02:32:16;;;;;;;2.80;2.33;;;16.10;99.90;;;;;;5014298;28;20245;-77
2021/08/26 02:34:41;;;;;;;5.90;2.30;;;16.10;99.90;;;;;;5012143;28;20193;-75
2021/08/26 02:37:09;;;;;;;2.80;2.40;;;16.10;99.90;;;;;;5013030;28;20255;-77
2021/08/26 02:39:35;;;;;;;2.40;1.90;;;16.10;99.90;;;;;;5013852;28;20250;-78
2021/08/26 02:42:02;;;;;;;4.77;2.40;;;16.00;99.90;;;;;;5012342;28;20417;-77
2021/08/26 02:44:28;;;;;;;6.97;2.67;;;16.10;99.90;;;;;;5013825;28;20555;-77
2021/08/26 02:46:54;;;;;;;6.80;2.50;;;15.90;99.90;;;;;;5013252;28;20885;-77
2021/08/26 02:49:19;;;;;;;5.13;3.30;;;16.00;99.90;;;;;;5013807;28;20420;-78
2021/08/26 02:51:45;;;;;;;5.30;3.00;;;16.00;99.90;;;;;;5012939;28;20180;-77
2021/08/26 02:54:10;;;;;;;4.60;2.03;;;16.00;99.90;;;;;;5012651;28;20193;-77
2021/08/26 02:56:36;;;;;;;3.00;2.20;;;15.90;99.90;;;;;;5011767;28;20270;-76
2021/08/26 02:59:04;;;;;;;4.80;2.50;;;15.90;99.90;;;;;;5012601;28;20213;-77
2021/08/26 03:01:30;;;;;;;3.53;1.93;;;15.90;99.90;;;;;;5013085;28;20178;-76
2021/08/26 03:03:55;;;;;;;3.93;2.93;;;15.90;99.90;;;;;;5012702;28;20858;-77
2021/08/26 03:06:21;;;;;;;4.60;2.50;;;15.90;99.90;;;;;;5013104;28;20205;-77
2021/08/26 03:08:46;;;;;;;7.13;2.70;;;15.90;99.90;;;;;;5013603;28;20178;-77
2021/08/26 03:11:15;;;;;;;6.30;3.20;;;15.90;99.90;;;;;;5014704;28;20170;-77
2021/08/26 03:13:40;;;;;;;5.73;2.80;;;15.80;99.90;;;;;;5013139;28;20174;-77
2021/08/26 03:16:06;;;;;;;2.60;1.90;;;15.90;99.90;;;;;;5013486;28;20424;-78
2021/08/26 03:18:33;;;;;;;10.27;3.70;;;15.90;99.90;;;;;;5013614;28;20190;-77
2021/08/26 03:20:59;;;;;;;6.63;2.43;;;15.70;99.90;;;;;;5013564;28;20463;-77
2021/08/26 03:23:25;;;;;;;9.27;3.10;;;15.70;99.90;;;;;;5010779;28;20428;-78
2021/08/26 03:25:51;;;;;;;5.07;2.87;;;15.60;99.90;;;;;;5012912;28;20214;-77
2021/08/26 03:28:18;;;;;;;4.90;2.23;;;15.60;99.90;;;;;;5011327;28;20182;-77
2021/08/26 03:30:44;;;;;;;5.43;2.90;;;15.50;99.90;;;;;;5013076;28;20409;-77
2021/08/26 03:33:10;;;;;;;4.67;2.43;;;15.50;99.90;;;;;;5012700;28;20417;-77
2021/08/26 03:35:36;;;;;;;6.30;3.27;;;15.50;99.90;;;;;;5012984;28;20457;-78
2021/08/26 03:38:05;;;;;;;3.70;2.53;;;15.50;99.90;;;;;;5012220;28;20412;-77
2021/08/26 03:40:30;;;;;;;4.87;2.87;;;15.40;99.90;;;;;;5013288;28;20511;-78
2021/08/26 03:42:58;;;;;;;5.23;2.83;;;15.50;99.90;;;;;;5012765;28;20416;-77
2021/08/26 03:45:24;;;;;;;5.70;2.73;;;15.50;99.90;;;;;;5012823;28;20208;-76
2021/08/26 03:47:49;;;;;;;10.67;3.70;;;15.60;99.90;;;;;;5012269;28;20412;-77
2021/08/26 03:50:15;;;;;;;5.80;2.63;;;15.50;99.90;;;;;;5013484;28;20529;-77
2021/08/26 03:52:40;;;;;;;5.23;2.83;;;15.60;99.90;;;;;;5013204;28;20178;-77
2021/08/26 03:55:07;;;;;;;9.63;3.97;;;15.60;99.90;;;;;;5011969;28;20573;-77
2021/08/26 03:57:32;;;;;;;14.00;5.03;;;15.60;99.90;;;;;;5013375;28;20190;-76
2021/08/26 03:59:58;;;;;;;9.73;3.07;;;15.70;99.90;;;;;;5012681;28;20784;-77
2021/08/26 04:02:23;;;;;;;11.90;3.70;;;15.70;99.90;;;;;;5013782;28;20185;-77
2021/08/26 04:04:49;;;;;;;9.70;2.83;;;15.70;99.90;;;;;;5014379;28;20194;-77
2021/08/26 04:07:17;;;;;;;6.43;3.30;;;15.70;99.90;;;;;;5016317;28;20201;-76
2021/08/26 04:09:43;;;;;;;7.17;3.43;;;15.80;99.90;;;;;;5015988;28;20257;-77
2021/08/26 04:12:08;;;;;;;9.33;4.13;;;15.70;99.90;;;;;;5015484;28;20513;-78
2021/08/26 04:14:34;;;;;;;7.17;2.90;;;15.60;99.90;;;;;;5015569;28;20194;-77
2021/08/26 04:16:59;;;;;;;6.10;2.87;;;15.60;99.90;;;;;;5015768;28;20201;-78
2021/08/26 04:19:25;;;;;;;9.13;3.30;;;15.70;99.90;;;;;;5015974;28;20182;-78
2021/08/26 04:21:51;;;;;;;9.67;4.17;;;15.70;99.90;;;;;;5015690;28;20174;-77
2021/08/26 04:24:16;;;;;;;8.47;3.23;;;15.70;99.90;;;;;;5015468;28;20671;-77
2021/08/26 04:26:45;;;;;;;9.43;3.30;;;15.70;99.90;;;;;;5015049;28;20261;-78
2021/08/26 04:29:10;;;;;;;3.40;2.60;;;15.70;99.90;;;;;;5015572;28;20185;-78
2021/08/26 04:31:36;;;;;;;10.50;3.10;;;15.80;99.90;;;;;;5015878;28;20432;-78
2021/08/26 04:34:02;;;;;;;7.60;3.73;;;15.80;99.90;;;;;;5015169;28;20209;-77
2021/08/26 04:36:27;;;;;;;4.53;2.90;;;15.70;99.90;;;;;;5014017;28;20226;-76
2021/08/26 04:38:53;;;;;;;5.87;3.20;;;15.70;99.90;;;;;;5014363;28;20199;-77
2021/08/26 04:41:19;;;;;;;8.07;3.47;;;15.80;99.90;;;;;;5018544;28;20232;-77
2021/08/26 04:43:44;;;;;;;6.50;3.03;;;15.80;99.90;;;;;;5016513;28;20186;-78
2021/08/26 04:46:10;;;;;;;4.17;2.80;;;15.80;99.90;;;;;;5015482;28;20576;-78
2021/08/26 04:48:35;;;;;;;6.73;2.77;;;15.90;99.90;;;;;;5015262;28;20174;-78
2021/08/26 04:51:01;;;;;;;7.87;3.50;;;15.90;99.90;;;;;;5016938;28;20666;-77
2021/08/26 04:53:26;;;;;;;6.23;4.00;;;15.90;99.90;;;;;;5014181;28;20189;-77
2021/08/26 04:55:52;;;;;;;8.17;4.10;;;16.00;99.90;;;;;;5013603;28;20237;-76
2021/08/26 04:58:20;;;;;;;8.43;3.40;;;15.90;99.90;;;;;;5014921;28;20193;-76
2021/08/26 05:00:46;;;;;;;7.50;4.43;;;15.90;99.90;;;;;;5014992;28;20177;-77
2021/08/26 05:03:12;;;;;;;4.90;4.00;;;15.80;99.90;;;;;;5013225;28;20429;-78
2021/08/26 05:05:38;;;;;;;5.27;3.60;;;15.80;99.90;;;;;;5015766;28;20785;-78
2021/08/26 05:08:03;;;;;;;4.73;3.37;;;15.80;99.90;;;;;;5014136;28;20516;-77
2021/08/26 05:10:29;;;;;;;6.77;4.10;;;15.90;99.90;;;;;;5015165;28;20205;-77
2021/08/26 05:12:54;;;;;;;4.80;2.83;;;15.80;99.90;;;;;;5014695;28;20419;-77
2021/08/26 05:15:20;;;;;;;14.40;3.93;;;16.00;99.90;;;;;;5014629;28;20225;-78
2021/08/26 05:17:45;;;;;;;5.60;3.77;;;16.10;99.90;;;;;;5014449;28;20182;-77
2021/08/26 05:20:12;;;;;;;15.60;4.20;;;16.10;99.90;;;;;;5014696;28;20178;-77
2021/08/26 05:22:40;;;;;;;5.60;3.57;;;16.10;99.90;;;;;;5014428;28;20205;-78
2021/08/26 05:25:06;;;;;;;8.33;3.67;;;16.20;99.90;;;;;;5014132;28;20433;-78
2021/08/26 05:27:31;;;;;;;7.00;3.70;;;16.20;99.90;;;;;;5014131;28;20460;-77
2021/08/26 05:29:57;;;;;;;7.47;3.90;;;16.30;99.90;;;;;;5014157;28;20420;-77
2021/08/26 05:32:22;;;;;;;7.27;3.70;;;16.20;99.90;;;;;;5014656;28;20196;-77
2021/08/26 05:34:48;;;;;;;9.60;3.70;;;16.20;99.90;;;;;;5013962;28;20684;-77
2021/08/26 05:37:13;;;;;;;5.43;3.50;;;16.20;99.90;;;;;;5013659;28;20174;-77
2021/08/26 05:39:39;;;;;;;6.10;3.67;;;16.20;99.90;;;;;;5013762;28;20237;-77
2021/08/26 05:42:04;;;;;;;5.60;3.57;;;16.20;99.90;;;;;;5014036;28;20594;-76
2021/08/26 05:44:30;;;;;;;7.80;4.13;;;16.10;99.90;;;;;;5013681;28;20211;-77
2021/08/26 05:46:56;;;;;;;8.70;4.30;;;16.10;99.90;;;;;;5013628;28;20202;-78
2021/08/26 05:49:21;;;;;;;8.90;3.50;;;16.10;99.90;;;;;;5014128;28;20178;-78
2021/08/26 05:51:47;;;;;;;12.03;3.73;;;16.10;99.90;;;;;;5014145;28;20309;-77
2021/08/26 05:54:12;;;;;;;6.87;4.10;;;16.20;99.90;;;;;;5014134;28;20217;-78
2021/08/26 05:56:38;;;;;;;10.17;4.20;;;16.00;99.90;;;;;;5015108;28;20236;-79
2021/08/26 05:59:06;;;;;;;7.10;2.63;;;16.10;99.90;;;;;;5019304;28;20181;-79
2021/08/26 06:01:31;;;;;;;7.17;3.40;;;17.00;99.90;;;;;;5018703;28;20186;-79
2021/08/26 06:03:57;;;;;;;4.40;3.47;;;17.20;99.90;;;;;;5019190;28;20441;-79
2021/08/26 06:06:23;;;;;;;5.77;3.40;;;17.30;99.90;;;;;;5019740;28;20502;-79
2021/08/26 06:08:49;;;;;;;6.80;3.67;;;17.40;99.90;;;;;;5016917;28;20413;-77
2021/08/26 06:11:17;;;;;;;7.73;3.30;;;17.50;99.90;;;;;;5015874;28;20178;-79
2021/08/26 06:13:43;;;;;;;10.90;3.60;;;17.40;99.90;;;;;;5016576;28;20492;-80
2021/08/26 06:16:08;;;;;;;11.53;4.23;;;17.50;99.90;;;;;;4999764;28;20584;-78
2021/08/26 06:18:34;;;;;;;7.40;4.10;;;17.30;99.90;;;;;;5017473;28;20214;-80
2021/08/26 06:20:59;;;;;;;5.63;3.00;;;17.20;99.90;;;;;;5015336;28;20198;-78
2021/08/26 06:23:25;;;;;;;6.67;3.43;;;17.40;99.90;;;;;;5017448;28;20181;-79
2021/08/26 06:25:51;;;;;;;8.30;3.33;;;17.60;99.90;;;;;;5007583;28;20238;-78
2021/08/26 06:28:19;;;;;;;6.60;3.10;;;17.40;99.90;;;;;;5004893;28;20187;-78
2021/08/26 06:30:45;;;;;;;7.53;3.43;;;17.00;99.90;;;;;;5014049;28;20175;-79
2021/08/26 06:33:10;;;;;;;10.60;3.47;;;16.80;99.90;;;;;;5014427;28;20424;-79
2021/08/26 06:35:37;;;;;;;7.27;3.60;;;16.60;99.90;;;;;;5014631;28;20209;-79
2021/08/26 06:38:02;;;;;;;6.50;3.67;;;16.10;99.90;;;;;;5014846;28;20180;-78
2021/08/26 06:40:28;;;;;;;7.17;3.70;;;15.80;99.90;;;;;;5012693;28;20486;-78
2021/08/26 06:42:54;;;;;;;9.00;3.63;;;15.90;99.90;;;;;;5013966;28;20178;-78
2021/08/26 06:45:25;;;;;;;8.03;3.50;;;16.00;99.90;;;;;;5014471;28;20194;-79
2021/08/26 06:47:51;;;;;;;8.43;3.60;;;16.00;99.90;;;;;;5014741;28;20212;-78
2021/08/26 06:50:16;;;;;;;9.07;4.23;;;16.10;99.90;;;;;;5013521;28;20428;-78
2021/08/26 06:52:42;;;;;;;11.63;3.80;;;16.10;99.90;;;;;;5014115;28;20477;-79
2021/08/26 06:55:08;;;;;;;5.73;3.20;;;16.10;99.90;;;;;;5010824;28;20209;-78
2021/08/26 06:57:33;;;;;;;6.33;3.13;;;16.10;99.90;;;;;;4994995;28;20181;-78
2021/08/26 06:59:59;;;;;;;9.20;4.40;;;16.20;99.90;;;;;;4999677;28;20205;-78
2021/08/26 07:02:25;;;;;;;5.57;2.70;;;16.30;99.90;;;;;;5013064;28;20256;-78
2021/08/26 07:04:50;;;;;;;7.23;3.20;;;16.10;99.90;;;;;;5012813;28;20201;-78
2021/08/26 07:07:19;;;;;;;8.03;3.40;;;16.20;99.90;;;;;;5012466;28;20684;-77
2021/08/26 07:09:45;;;;;;;3.50;3.20;;;16.80;99.90;;;;;;5013195;28;20577;-78
2021/08/26 07:12:16;;;;;;;3.63;2.87;;;17.10;99.90;;;;;;5008281;28;20425;-78
2021/08/26 07:14:41;;;;;;;5.83;3.50;;;17.20;99.90;;;;;;5026519;28;20225;-78
2021/08/26 07:17:07;;;;;;;3.90;2.57;;;17.30;99.90;;;;;;5031622;28;20942;-77
2021/08/26 07:19:32;;;;;;;6.47;3.60;;;17.10;99.90;;;;;;5019796;28;20484;-77
2021/08/26 07:21:58;;;;;;;8.83;2.90;;;17.40;99.90;;;;;;5012571;28;20179;-77
2021/08/26 07:24:23;;;;;;;6.37;3.50;;;17.20;99.90;;;;;;5012389;28;20195;-78
2021/08/26 07:26:49;;;;;;;6.47;3.37;;;17.50;99.90;;;;;;5012626;28;20205;-77
2021/08/26 07:29:15;;;;;;;6.63;3.00;;;17.60;99.90;;;;;;5013166;28;20170;-78
2021/08/26 07:31:41;;;;;;;5.50;2.63;;;17.60;99.90;;;;;;5032589;28;20254;-79
2021/08/26 07:34:06;;;;;;;6.03;3.77;;;17.60;99.90;;;;;;5030234;28;20707;-77
2021/08/26 07:36:32;;;;;;;13.10;3.60;;;17.60;99.90;;;;;;5032391;28;20187;-78
2021/08/26 07:38:58;;;;;;;4.90;2.80;;;17.70;99.90;;;;;;5033034;28;20190;-79
2021/08/26 07:41:26;;;;;;;6.80;3.10;;;17.70;99.90;;;;;;5034920;28;20180;-78
2021/08/26 07:43:52;;;;;;;11.53;2.90;;;17.50;99.90;;;;;;5021840;28;20295;-78
2021/08/26 07:46:17;;;;;;;11.00;3.50;;;17.10;99.90;;;;;;5016660;28;20542;-77
2021/08/26 07:48:43;;;;;;;8.10;2.73;;;17.30;99.90;;;;;;5014697;28;20250;-77
2021/08/26 07:51:11;;;;;;;2.93;2.43;;;17.40;99.90;;;;;;4999447;28;20186;-78
2021/08/26 07:53:37;;;;;;;5.50;2.63;;;17.40;99.90;;;;;;5016239;28;20177;-78
2021/08/26 07:56:03;;;;;;;3.80;2.43;;;17.60;99.90;;;;;;5015643;28;20489;-77
2021/08/26 07:58:32;;;;;;;2.93;2.27;;;17.80;99.90;;;;;;5016564;28;20261;-77
2021/08/26 08:01:01;;;;;;;3.67;1.70;;;17.80;99.90;;;;;;5016741;28;20491;-77
2021/08/26 08:03:27;;;;;;;3.50;2.23;;;17.60;99.90;;;;;;5014120;28;20416;-77
2021/08/26 08:05:53;;;;;;;5.63;2.73;;;17.70;99.90;;;;;;5016638;28;20463;-76
2021/08/26 08:08:18;;;;;;;6.27;2.07;;;18.00;99.90;;;;;;5035544;28;20490;-76
2021/08/26 08:10:44;;;;;;;3.17;1.70;;;18.10;99.90;;;;;;5037268;28;20495;-76
2021/08/26 08:13:09;;;;;;;3.33;1.80;;;18.30;99.90;;;;;;5036472;28;20219;-78
2021/08/26 08:15:35;;;;;;;3.87;1.77;;;18.60;99.90;;;;;;5036705;28;20262;-76
2021/08/26 08:18:00;;;;;;;3.97;1.97;;;18.60;99.90;;;;;;5035368;28;20602;-78
2021/08/26 08:20:26;;;;;;;5.53;2.27;;;18.70;99.90;;;;;;5035906;28;20509;-78
2021/08/26 08:22:51;;;;;;;4.63;1.67;;;18.70;99.90;;;;;;5036899;28;20264;-81
2021/08/26 08:25:17;;;;;;;3.57;2.00;;;18.40;99.90;;;;;;5034991;28;20739;-78
2021/08/26 08:27:43;;;;;;;2.70;1.80;;;18.10;99.90;;;;;;5028662;28;20229;-78
2021/08/26 08:30:09;;;;;;;12.70;2.57;;;18.00;99.90;;;;;;5006243;28;20534;-77
2021/08/26 08:32:34;;;;;;;2.90;1.87;;;17.80;99.90;;;;;;5014905;28;20182;-78
2021/08/26 08:35:00;;;;;;;3.57;1.70;;;17.70;99.90;;;;;;5005538;28;20438;-78
2021/08/26 08:37:26;;;;;;;8.23;2.17;;;17.70;99.90;;;;;;5008863;28;20177;-78
2021/08/26 08:39:54;;;;;;;3.33;2.13;;;17.70;99.90;;;;;;5016130;28;20531;-77
2021/08/26 08:42:22;;;;;;;2.77;1.80;;;17.70;99.90;;;;;;5015991;28;20548;-78
2021/08/26 08:44:47;;;;;;;2.00;1.80;;;18.00;99.90;;;;;;5015824;28;20432;-77
2021/08/26 08:47:14;;;;;;;2.93;1.90;;;18.30;99.90;;;;;;5014331;28;20518;-78
2021/08/26 08:49:42;;;;;;;2.40;1.63;;;18.40;99.90;;;;;;5015084;28;20499;-77
2021/08/26 08:52:09;;;;;;;3.03;1.63;;;18.20;99.90;;;;;;5015021;28;20423;-78
2021/08/26 08:54:35;;;;;;;4.10;1.97;;;18.20;99.90;;;;;;5015547;28;21041;-78
2021/08/26 08:57:01;;;;;;;2.27;1.80;;;18.40;99.90;;;;;;5015168;28;20928;-77
2021/08/26 08:59:29;;;;;;;2.57;1.53;;;18.30;99.90;;;;;;5004783;28;20440;-78
2021/08/26 09:01:57;;;;;;;6.00;2.03;;;18.20;99.90;;;;;;5004950;28;20459;-78
2021/08/26 09:04:24;;;;;;;3.13;1.47;;;17.80;99.90;;;;;;5014610;28;20458;-79
2021/08/26 09:06:50;;;;;;;5.00;1.57;;;17.60;99.90;;;;;;5015702;28;20467;-77
2021/08/26 09:09:17;;;;;;;2.47;1.90;;;17.50;99.90;;;;;;5032333;28;20414;-76
2021/08/26 09:11:57;;;;;;;3.50;1.30;;;17.40;99.90;;;;;;5019792;28;20439;-76
2021/08/26 09:14:28;;;;;;;3.07;1.53;;;16.90;99.90;;;;;;5017155;28;20458;-77
2021/08/26 09:16:54;;;;;;;2.90;1.53;;;16.60;99.90;;;;;;5015838;28;20450;-77
2021/08/26 09:19:30;;;;;;;2.53;1.30;;;16.50;99.90;;;;;;5016268;28;20508;-77
2021/08/26 09:22:06;;;;;;;3.30;1.37;;;16.50;99.90;;;;;;5005286;28;20413;-76
2021/08/26 09:24:50;;;;;;;1.30;1.00;;;16.50;99.90;;;;;;4994845;28;20461;-78
2021/08/26 09:27:41;;;;;;;3.77;1.60;;;16.30;99.90;;;;;;4994783;28;20554;-78
2021/08/26 09:30:16;;;;;;;2.30;1.63;;;16.30;99.90;;;;;;4999445;28;20425;-77
2021/08/26 09:32:56;;;;;;;3.40;1.13;;;16.60;99.90;;;;;;5012108;28;20819;-77
2021/08/26 09:35:26;;;;;;;3.53;1.20;;;16.70;99.90;;;;;;4998707;28;20429;-77
2021/08/26 09:38:00;;;;;;;2.30;1.27;;;17.00;99.90;;;;;;4996403;28;20418;-78
2021/08/26 09:40:31;;;;;;;4.50;1.30;;;16.90;99.90;;;;;;5012978;28;20507;-77
2021/08/26 09:43:05;;;;;;;4.13;1.17;;;17.00;99.90;;;;;;5014134;28;20482;-78
2021/08/26 09:45:40;;;;;;;3.83;1.40;;;17.10;99.90;;;;;;5013762;28;20876;-77
2021/08/26 09:48:11;;;;;;;3.00;1.20;;;17.10;99.90;;;;;;5013754;28;20451;-77
2021/08/26 09:50:41;;;;;;;3.90;1.80;;;17.20;99.90;;;;;;5013785;28;20418;-78
2021/08/26 09:53:08;;;;;;;1.80;1.60;;;17.30;99.90;;;;;;5014530;28;20824;-77
2021/08/26 09:55:49;;;;;;;2.80;1.30;;;17.40;99.90;;;;;;5013981;28;20434;-77
2021/08/26 09:58:22;;;;;;;4.70;2.03;;;17.50;99.90;;;;;;5012588;28;20487;-78
2021/08/26 10:00:49;;;;;;;1.87;1.10;;;17.30;99.90;;;;;;5012560;28;20923;-76
2021/08/26 10:03:16;;;;;;;1.63;0.83;;;17.10;99.90;;;;;;4996045;28;20412;-77
2021/08/26 10:05:44;;;;;;;1.07;0.97;;;17.50;99.90;;;;;;4994144;28;20453;-77
2021/08/26 10:08:13;;;;;;;1.17;0.90;;;17.50;99.90;;;;;;4997672;28;20484;-77
2021/08/26 10:10:39;;;;;;;1.50;0.77;;;17.60;99.90;;;;;;5013348;28;21003;-77
2021/08/26 10:13:06;;;;;;;2.37;0.83;;;17.60;99.90;;;;;;5012973;28;20768;-78
2021/08/26 10:15:35;;;;;;;1.53;0.80;;;17.60;99.90;;;;;;5013287;28;20446;-77
2021/08/26 10:18:01;;;;;;;3.17;0.73;;;17.70;99.90;;;;;;5010506;28;21005;-79
2021/08/26 10:20:29;;;;;;;1.47;0.77;;;17.60;99.90;;;;;;5004643;28;20422;-77
2021/08/26 10:22:55;;;;;;;1.10;0.70;;;17.50;99.90;;;;;;4993283;28;20420;-78
2021/08/26 10:25:21;;;;;;;1.00;0.70;;;17.50;99.90;;;;;;5006732;28;20456;-77
2021/08/26 10:27:49;;;;;;;1.40;1.30;;;17.80;99.90;;;;;;5013695;28;20491;-77
2021/08/26 10:30:36;;;;;;;3.17;1.67;;;18.10;99.90;;;;;;5013772;28;20649;-77
2021/08/26 10:33:20;;;;;;;1.53;1.30;;;18.20;99.90;;;;;;5013243;28;20471;-78
2021/08/26 10:35:56;;;;;;;1.30;1.00;;;18.50;99.90;;;;;;5015014;28;20566;-79
2021/08/26 10:38:28;;;;;;;4.30;1.00;;;18.80;99.90;;;;;;4993564;28;20460;-77
2021/08/26 10:40:54;;;;;;;1.97;0.70;;;18.70;99.90;;;;;;4992785;28;20408;-77
2021/08/26 10:43:34;;;;;;;0.90;0.60;;;18.10;99.90;;;;;;4993838;28;20412;-77
2021/08/26 10:46:01;;;;;;;1.20;0.70;;;18.00;99.90;;;;;;4992392;28;20457;-79
2021/08/26 10:48:28;;;;;;;1.77;0.90;;;18.00;99.90;;;;;;5003521;28;20435;-79
2021/08/26 10:51:07;;;;;;;3.20;1.10;;;17.90;99.90;;;;;;5008976;28;20419;-79
2021/08/26 10:53:38;;;;;;;1.60;1.00;;;18.20;99.90;;;;;;4996083;28;20406;-79
2021/08/26 10:56:29;;;;;;;2.70;1.53;;;18.50;99.90;;;;;;4990065;28;20433;-79
2021/08/26 10:58:59;;;;;;;1.63;1.03;;;18.50;99.90;;;;;;5008610;28;20560;-79
2021/08/26 11:01:28;;;;;;;4.97;1.30;;;18.50;99.90;;;;;;5015011;28;20540;-80
2021/08/26 11:04:06;;;;;;;2.70;1.53;;;18.40;99.90;;;;;;5014333;28;20452;-79
2021/08/26 11:06:36;;;;;;;1.40;1.07;;;18.50;99.90;;;;;;5019623;28;20459;-80
2021/08/26 11:09:11;;;;;;;1.73;1.10;;;18.50;99.90;;;;;;4998054;28;20419;-79
2021/08/26 11:11:39;;;;;;;3.00;0.70;;;18.60;99.90;;;;;;5015392;28;20420;-80
2021/08/26 11:14:07;;;;;;;0.90;0.60;;;18.60;99.90;;;;;;5012510;28;20445;-79
2021/08/26 11:16:39;;;;;;;4.00;1.00;;;18.60;99.90;;;;;;5015082;28;20436;-78
2021/08/26 11:19:08;;;;;;;5.43;1.10;;;18.50;99.90;;;;;;5012211;28;20431;-77
2021/08/26 11:21:45;;;;;;;2.10;0.97;;;18.20;99.90;;;;;;5013787;28;20831;-78
2021/08/26 11:24:19;;;;;;;1.13;0.73;;;18.30;99.90;;;;;;5007910;28;20570;-79
2021/08/26 11:26:58;;;;;;;1.03;0.90;;;18.30;99.90;;;;;;5013314;28;20872;-78
2021/08/26 11:29:23;;;;;;;1.77;0.90;;;18.40;99.90;;;;;;4992764;28;20429;-78
2021/08/26 11:31:55;;;;;;;1.37;0.60;;;18.30;99.90;;;;;;4994738;28;20634;-78
2021/08/26 11:34:21;;;;;;;1.30;0.80;;;18.40;99.90;;;;;;5013437;28;20197;-77
2021/08/26 11:37:15;;;;;;;1.97;0.70;;;18.50;99.90;;;;;;4996883;28;20424;-78
2021/08/26 11:39:59;;;;;;;1.20;0.73;;;18.50;99.90;;;;;;4998057;28;20474;-79
2021/08/26 11:42:31;;;;;;;0.90;0.70;;;18.40;99.90;;;;;;5012638;28;20428;-77
2021/08/26 11:45:15;;;;;;;2.00;0.90;;;18.40;99.90;;;;;;5012251;28;20524;-78
2021/08/26 11:47:45;;;;;;;1.63;0.90;;;18.20;99.90;;;;;;5013022;28;20460;-78
2021/08/26 11:50:19;;;;;;;2.53;1.00;;;18.20;99.90;;;;;;5013850;28;20556;-78
2021/08/26 11:52:49;;;;;;;1.00;0.73;;;18.40;99.90;;;;;;5013043;28;20450;-78
2021/08/26 11:55:20;;;;;;;1.20;0.70;;;18.40;99.90;;;;;;5011929;28;20858;-78
2021/08/26 11:57:46;;;;;;;1.40;0.97;;;18.20;99.90;;;;;;5012402;28;20466;-78
2021/08/26 12:00:16;;;;;;;0.90;0.60;;;18.30;99.90;;;;;;5013553;28;20915;-78
2021/08/26 12:02:48;;;;;;;0.90;0.60;;;18.10;99.90;;;;;;5012281;28;20172;-81
2021/08/26 12:05:15;;;;;;;1.77;0.70;;;17.70;99.90;;;;;;4998740;28;20462;-78
2021/08/26 12:07:43;;;;;;;0.90;0.60;;;17.70;99.90;;;;;;5010645;28;20463;-77
2021/08/26 12:10:12;;;;;;;1.83;0.73;;;17.80;99.90;;;;;;5012258;28;20425;-78
2021/08/26 12:12:48;;;;;;;1.97;0.70;;;17.80;99.90;;;;;;5010991;28;20423;-78
2021/08/26 12:15:23;;;;;;;1.00;0.63;;;17.90;99.90;;;;;;5009880;28;20470;-78
2021/08/26 12:17:53;;;;;;;1.67;0.70;;;18.00;99.90;;;;;;5010703;28;20411;-77
2021/08/26 12:20:22;;;;;;;1.30;0.80;;;18.10;99.90;;;;;;5012188;28;20431;-78
2021/08/26 12:22:49;;;;;;;1.63;0.90;;;18.20;99.90;;;;;;5011844;28;20906;-79
2021/08/26 12:25:33;;;;;;;1.50;0.90;;;18.30;99.90;;;;;;5012274;28;20433;-78
2021/08/26 12:28:02;;;;;;;1.00;0.73;;;18.40;99.90;;;;;;5013700;28;20456;-79
2021/08/26 12:30:38;;;;;;;2.57;0.87;;;18.40;99.90;;;;;;5015007;28;20428;-78
2021/08/26 12:33:17;;;;;;;7.73;0.83;;;18.30;99.90;;;;;;4996223;28;20409;-78
2021/08/26 12:35:57;;;;;;;3.47;0.80;;;17.90;99.90;;;;;;5015244;28;20439;-78
2021/08/26 12:38:31;;;;;;;1.43;0.67;;;17.60;99.90;;;;;;5008827;28;20446;-78
2021/08/26 12:40:59;;;;;;;0.80;0.50;;;17.60;99.90;;;;;;5015560;28;20768;-79
2021/08/26 12:43:46;;;;;;;1.07;0.60;;;17.40;99.90;;;;;;5015658;28;20431;-79
2021/08/26 12:46:25;;;;;;;2.67;0.70;;;17.40;99.90;;;;;;4996361;28;20501;-78
2021/08/26 12:49:03;;;;;;;1.17;0.70;;;17.70;99.90;;;;;;5001790;28;20481;-78
2021/08/26 12:51:28;;;;;;;1.20;0.70;;;17.80;99.90;;;;;;5010832;28;20417;-77
2021/08/26 12:54:02;;;;;;;1.50;0.73;;;17.70;99.90;;;;;;4996293;28;20434;-77
2021/08/26 12:56:38;;;;;;;1.17;0.73;;;17.70;99.90;;;;;;4997147;28;20182;-77